Airfield :
LOGIN :

Register | Disclaimer

   EN    FR    IT 

 










Legend :    VFR   Marginal VFR   IFR   Intensive IFR   Very Intensive IFR
Visi :
Ceiling :
>= 8 km
>= 3000ft
5 to 8 km
1000 to 3000 ft
1500m to 5 km
500 to 1000 ft
800 to 1500m
200 to 500 ft
< 800m
< 200 ft
Symbols :   Thunderstorms  Fog  Heavy snow  Heavy precipitations  Wind > 20 kt
SIGMETs :     Misc.  Thunderstorms  Icing  Turbulence  Mountain Waves  Volcanic Ashes






- Airport Elevation : 121 ft
- IATA code : HUY


EGNJ - Humberside

CURRENT METAR :
  • 041350Z 21020KT 9999 SCT021 19/14 Q1011

EXPIRED METARs :
  • 041320Z 22020KT 9999 SCT025 19/14 Q1011
  • 041250Z 22021KT 9999 SCT025 19/14 Q1011
  • 041220Z 22018KT 9999 BKN025 19/14 Q1011
  • 041150Z 22023KT 9999 BKN025 19/13 Q1011
  • 041120Z 22021KT 9999 BKN025 18/14 Q1011

TAF TAF EGNJ
Valid from the 04 at 12:00 until the 04 at 21:00 UTC


041057Z 0412/0421 20014KT 9999 SCT025
PROB30
TEMPO 0412/0421 21017G27KT
TEMPO 0413/0416 6000 -RA
ATIS : +44 1652 682 020



MET'MAP, your aeronautical weather chart ! - Copyright ORBIFLY December 2007 - Disclaimer

ORBIFLY MET'MAP TEAM :

Programming & Development : Alexandra Zaïnal
Original concept : Baudouin d'Aumeries
Technical & hardware support : Manuel Goepfert
Assistance : Marc-Olivier Méhu




SOURCES & CREDITS :

   NOAA